Time;durP1;ratioP1;P1;durP2;ratioP2;P2;SDS_P1;SDS_P2;PMS_P1;PMS_P2;Temp;Humidity;BMP_temperature;BMP_pressure;BME280_temperature;BME280_humidity;BME280_pressure;Samples;Min_cycle;Max_cycle;Signal;HPM_P1;HPM_P2
2022/02/22 00:01:16;;;;;;;37.22;5.80;;;4.00;99.90;;;;;;5016808;28;20153;-75
2022/02/22 00:03:43;;;;;;;34.45;5.80;;;4.00;99.90;;;;;;5016136;28;20129;-77
2022/02/22 00:06:10;;;;;;;30.27;5.25;;;4.00;99.90;;;;;;5002044;28;20782;-74
2022/02/22 00:08:36;;;;;;;31.40;5.38;;;4.00;99.90;;;;;;5017013;28;20136;-77
2022/02/22 00:11:03;;;;;;;43.70;6.15;;;4.00;99.90;;;;;;5031887;28;20051;-75
2022/02/22 00:13:30;;;;;;;55.22;6.18;;;4.00;99.90;;;;;;5041369;28;20272;-77
2022/02/22 00:15:59;;;;;;;34.45;5.22;;;4.00;99.90;;;;;;5006165;28;20065;-77
2022/02/22 00:18:27;;;;;;;31.70;5.18;;;4.00;99.90;;;;;;4999983;28;20560;-74
2022/02/22 00:20:54;;;;;;;33.60;6.60;;;4.10;99.90;;;;;;4998597;28;20076;-76
2022/02/22 00:23:21;;;;;;;35.50;5.88;;;4.00;99.90;;;;;;4999523;28;20081;-76
2022/02/22 00:25:48;;;;;;;44.65;7.38;;;4.10;99.90;;;;;;5011954;28;20041;-76
2022/02/22 00:28:19;;;;;;;40.30;6.28;;;4.00;99.90;;;;;;5021879;28;20157;-76
2022/02/22 00:30:51;;;;;;;29.70;4.82;;;4.10;99.90;;;;;;5002975;28;20080;-75
2022/02/22 00:33:17;;;;;;;42.53;7.80;;;4.00;99.90;;;;;;5013122;28;20436;-77
2022/02/22 00:35:44;;;;;;;40.22;6.05;;;4.00;99.90;;;;;;5010254;28;20115;-76
2022/02/22 00:38:11;;;;;;;39.38;5.55;;;4.00;99.90;;;;;;5010638;28;20088;-76
2022/02/22 00:40:38;;;;;;;47.35;7.97;;;4.00;99.90;;;;;;5030145;28;20537;-76
2022/02/22 00:43:06;;;;;;;28.08;5.95;;;4.00;99.90;;;;;;5039997;28;20069;-74
2022/02/22 00:45:32;;;;;;;38.30;6.57;;;4.00;99.90;;;;;;5030173;28;20644;-76
2022/02/22 00:47:59;;;;;;;21.35;4.32;;;3.80;99.90;;;;;;5006965;28;20140;-76
2022/02/22 00:50:28;;;;;;;28.88;5.63;;;3.50;99.90;;;;;;5020047;28;20601;-76
2022/02/22 00:52:56;;;;;;;29.67;5.40;;;3.40;99.90;;;;;;5001700;28;20116;-76
2022/02/22 00:55:24;;;;;;;29.08;4.90;;;3.50;99.90;;;;;;5007482;28;20045;-75
2022/02/22 00:57:53;;;;;;;34.90;6.38;;;3.50;99.90;;;;;;5000266;28;20200;-76
2022/02/22 01:00:20;;;;;;;26.55;6.32;;;3.60;99.90;;;;;;5000021;28;20136;-76
2022/02/22 01:02:47;;;;;;;40.30;7.13;;;3.60;99.90;;;;;;5022322;28;20049;-76
2022/02/22 01:05:14;;;;;;;39.58;7.63;;;3.70;99.90;;;;;;5024442;28;20708;-76
2022/02/22 01:07:41;;;;;;;47.90;7.97;;;3.70;99.90;;;;;;5008783;28;20085;-75
2022/02/22 01:10:09;;;;;;;27.20;7.68;;;3.80;99.90;;;;;;5035545;28;20095;-76
2022/02/22 01:12:36;;;;;;;27.05;6.63;;;3.80;99.90;;;;;;5044318;28;20072;-76
2022/02/22 01:15:04;;;;;;;35.05;5.70;;;3.80;99.90;;;;;;5044279;28;20087;-77
2022/02/22 01:17:31;;;;;;;43.28;7.57;;;3.80;99.90;;;;;;5019328;28;20095;-76
2022/02/22 01:19:59;;;;;;;44.78;6.78;;;3.90;99.90;;;;;;5003329;28;20132;-77
2022/02/22 01:22:26;;;;;;;36.70;7.75;;;3.90;99.90;;;;;;5004309;28;20046;-76
2022/02/22 01:24:53;;;;;;;32.38;6.43;;;3.90;99.90;;;;;;5005250;28;20049;-76
2022/02/22 01:27:20;;;;;;;37.20;6.72;;;3.90;99.90;;;;;;5010781;28;20123;-76
2022/02/22 01:29:46;;;;;;;48.35;9.13;;;3.90;99.90;;;;;;5024902;28;20045;-76
2022/02/22 01:32:13;;;;;;;27.50;4.50;;;3.90;99.90;;;;;;5015369;28;20473;-76
2022/02/22 01:34:40;;;;;;;43.95;6.68;;;3.80;99.90;;;;;;5006642;28;20143;-76
2022/02/22 01:37:07;;;;;;;43.33;6.43;;;3.80;99.90;;;;;;5006277;28;20041;-76
2022/02/22 01:39:33;;;;;;;43.33;6.65;;;3.80;99.90;;;;;;5032048;28;20087;-76
2022/02/22 01:42:02;;;;;;;33.22;6.18;;;3.80;99.90;;;;;;5040496;28;20071;-77
2022/02/22 01:44:29;;;;;;;40.58;7.00;;;3.80;99.90;;;;;;5042644;28;20065;-77
2022/02/22 01:46:59;;;;;;;39.60;6.07;;;3.80;99.90;;;;;;5025620;28;20535;-77
2022/02/22 01:49:26;;;;;;;36.70;6.65;;;3.80;99.90;;;;;;5006933;28;20061;-77
2022/02/22 01:51:54;;;;;;;32.08;4.97;;;3.80;99.90;;;;;;5022745;28;20647;-77
2022/02/22 01:54:22;;;;;;;34.88;4.78;;;3.80;99.90;;;;;;5020112;28;20702;-77
2022/02/22 01:56:49;;;;;;;45.30;7.32;;;3.80;99.90;;;;;;5036412;28;20081;-77
2022/02/22 01:59:16;;;;;;;31.13;4.95;;;3.80;99.90;;;;;;5019785;28;20148;-77
2022/02/22 02:01:42;;;;;;;41.78;8.15;;;3.70;99.90;;;;;;5016127;28;20112;-76
2022/02/22 02:04:11;;;;;;;31.92;5.78;;;3.80;99.90;;;;;;5011606;28;20172;-77
2022/02/22 02:06:39;;;;;;;36.45;6.68;;;3.70;99.90;;;;;;5004016;28;20111;-77
2022/02/22 02:09:08;;;;;;;37.80;7.22;;;3.80;99.90;;;;;;5012591;28;20049;-75
2022/02/22 02:11:48;;;;;;;45.95;6.93;;;3.70;99.90;;;;;;5026948;28;20053;-74
2022/02/22 02:14:16;;;;;;;36.85;5.97;;;3.70;99.90;;;;;;5021194;28;20111;-74
2022/02/22 02:16:43;;;;;;;31.52;6.65;;;3.70;99.90;;;;;;5022388;28;20475;-77
2022/02/22 02:19:12;;;;;;;27.52;5.32;;;3.70;99.90;;;;;;5021884;28;20041;-75
2022/02/22 02:21:40;;;;;;;47.75;7.45;;;3.70;99.90;;;;;;5021282;28;20472;-74
2022/02/22 02:24:11;;;;;;;51.97;7.28;;;3.60;99.90;;;;;;5023803;28;20103;-77
2022/02/22 02:26:39;;;;;;;47.75;6.10;;;3.70;99.90;;;;;;5019701;28;20124;-74
2022/02/22 02:29:10;;;;;;;20.65;4.65;;;3.70;99.90;;;;;;5023320;28;20053;-74
2022/02/22 02:31:39;;;;;;;52.05;7.22;;;3.70;99.90;;;;;;5018105;28;20091;-75
2022/02/22 02:34:08;;;;;;;38.08;6.72;;;3.70;99.90;;;;;;5002858;28;20132;-77
2022/02/22 02:36:36;;;;;;;39.50;8.18;;;3.70;99.90;;;;;;5004992;28;20475;-77
2022/02/22 02:39:05;;;;;;;35.42;5.05;;;3.70;99.90;;;;;;5030506;28;20125;-76
2022/02/22 02:41:32;;;;;;;45.20;7.00;;;3.70;99.90;;;;;;5030028;28;20072;-77
2022/02/22 02:44:05;;;;;;;41.47;8.82;;;3.70;99.90;;;;;;5021897;28;20058;-77
2022/02/22 02:46:33;;;;;;;41.38;6.47;;;3.60;99.90;;;;;;5023274;28;20056;-75
2022/02/22 02:49:00;;;;;;;40.88;6.63;;;3.60;99.90;;;;;;5005177;28;20637;-75
2022/02/22 02:51:26;;;;;;;42.45;8.73;;;3.60;99.90;;;;;;5003264;28;20153;-75
2022/02/22 02:53:54;;;;;;;37.42;6.03;;;3.50;99.90;;;;;;5022866;28;20157;-78
2022/02/22 02:56:24;;;;;;;50.42;7.63;;;3.50;99.90;;;;;;5021336;28;20128;-78
2022/02/22 02:58:56;;;;;;;37.63;6.22;;;3.50;99.90;;;;;;5033168;28;20068;-77
2022/02/22 03:01:25;;;;;;;52.38;7.20;;;3.50;99.90;;;;;;5020984;28;20061;-77
2022/02/22 03:03:52;;;;;;;40.03;6.85;;;3.50;99.90;;;;;;5015460;28;20037;-78
2022/02/22 03:06:19;;;;;;;38.47;5.90;;;3.50;99.90;;;;;;5023424;28;20045;-77
2022/02/22 03:08:46;;;;;;;39.38;6.05;;;3.50;99.90;;;;;;5027883;28;20523;-77
2022/02/22 03:11:12;;;;;;;24.17;6.45;;;3.50;99.90;;;;;;5036479;28;20064;-77
2022/02/22 03:13:40;;;;;;;27.60;5.85;;;3.50;99.90;;;;;;5043546;28;20080;-77
2022/02/22 03:16:08;;;;;;;34.85;6.18;;;3.50;99.90;;;;;;5041106;28;20886;-77
2022/02/22 03:18:37;;;;;;;38.33;6.22;;;3.50;99.90;;;;;;5036161;28;20048;-78
2022/02/22 03:21:04;;;;;;;41.03;5.65;;;3.50;99.90;;;;;;5055955;23;20052;-79
2022/02/22 03:23:33;;;;;;;37.08;6.72;;;3.50;99.90;;;;;;5039404;28;20057;-79
2022/02/22 03:25:59;;;;;;;41.40;6.95;;;3.50;99.90;;;;;;5042594;28;20494;-79
2022/02/22 03:28:26;;;;;;;32.58;5.45;;;3.50;99.90;;;;;;5057499;28;20605;-79
2022/02/22 03:30:54;;;;;;;46.03;7.13;;;3.50;99.90;;;;;;5056608;28;20106;-79
2022/02/22 03:33:21;;;;;;;40.63;7.30;;;3.50;99.90;;;;;;5030257;28;20037;-79
2022/02/22 03:35:48;;;;;;;43.45;6.00;;;3.50;99.90;;;;;;5021735;28;20111;-79
2022/02/22 03:38:16;;;;;;;31.27;6.30;;;3.50;99.90;;;;;;5023683;28;20341;-79
2022/02/22 03:40:43;;;;;;;46.63;6.93;;;3.40;99.90;;;;;;5027087;28;20053;-79
2022/02/22 03:43:09;;;;;;;40.72;6.95;;;3.50;99.90;;;;;;5023749;28;20190;-78
2022/02/22 03:45:41;;;;;;;39.42;7.78;;;3.50;99.90;;;;;;5006481;28;20540;-79
2022/02/22 03:48:08;;;;;;;51.78;7.63;;;3.50;99.90;;;;;;5021851;28;20050;-79
2022/02/22 03:50:35;;;;;;;45.30;7.07;;;3.50;99.90;;;;;;5037119;28;20055;-79
2022/02/22 03:53:03;;;;;;;45.53;6.32;;;3.50;99.90;;;;;;5039663;28;20269;-79
2022/02/22 03:55:29;;;;;;;54.42;8.32;;;3.50;99.90;;;;;;5035182;28;20477;-79
2022/02/22 03:57:56;;;;;;;39.78;7.25;;;3.50;99.90;;;;;;5062046;28;20052;-79
2022/02/22 04:00:25;;;;;;;48.63;6.78;;;3.50;99.90;;;;;;5024967;28;20361;-79
2022/02/22 04:02:52;;;;;;;47.35;6.75;;;3.50;99.90;;;;;;5032227;28;20108;-79
2022/02/22 04:05:20;;;;;;;36.15;6.00;;;3.50;99.90;;;;;;5040974;28;20118;-79
2022/02/22 04:07:48;;;;;;;31.75;5.93;;;3.50;99.90;;;;;;5042729;28;20111;-79
2022/02/22 04:10:15;;;;;;;39.60;6.07;;;3.50;99.90;;;;;;5030780;28;20049;-79
2022/02/22 04:12:42;;;;;;;50.47;6.32;;;3.50;99.90;;;;;;5042796;28;20103;-79
2022/02/22 04:15:10;;;;;;;47.92;7.43;;;3.50;99.90;;;;;;5045321;28;20110;-79
2022/02/22 04:17:38;;;;;;;45.58;7.47;;;3.50;99.90;;;;;;5046230;28;20045;-79
2022/02/22 04:20:05;;;;;;;48.75;6.13;;;3.50;99.90;;;;;;5024417;28;20068;-79
2022/02/22 04:22:32;;;;;;;46.85;7.68;;;3.50;99.90;;;;;;5025226;28;20049;-79
2022/02/22 04:24:59;;;;;;;34.60;5.38;;;3.50;99.90;;;;;;5043853;28;20059;-79
2022/02/22 04:27:26;;;;;;;43.45;7.65;;;3.50;99.90;;;;;;5042714;28;20106;-79
2022/02/22 04:29:53;;;;;;;40.63;5.47;;;3.50;99.90;;;;;;5042049;28;20068;-79
2022/02/22 04:32:19;;;;;;;54.40;8.07;;;3.50;99.90;;;;;;5034627;28;20055;-79
2022/02/22 04:34:47;;;;;;;32.05;6.45;;;3.50;99.90;;;;;;5041105;28;20506;-79
2022/02/22 04:37:15;;;;;;;43.05;5.30;;;3.50;99.90;;;;;;5043256;28;20114;-78
2022/02/22 04:39:54;;;;;;;52.30;6.93;;;3.40;99.90;;;;;;5039030;28;20084;-79
2022/02/22 04:42:22;;;;;;;40.33;5.70;;;3.50;99.90;;;;;;5045980;28;20044;-79
2022/02/22 04:44:49;;;;;;;31.08;4.30;;;3.40;99.90;;;;;;5031281;28;20045;-79
2022/02/22 04:47:16;;;;;;;36.10;6.60;;;3.40;99.90;;;;;;5043871;28;20076;-78
2022/02/22 04:49:43;;;;;;;34.67;5.88;;;3.40;99.90;;;;;;5030338;28;20061;-79
2022/02/22 04:52:10;;;;;;;40.08;6.15;;;3.40;99.90;;;;;;5049199;28;20052;-79
2022/02/22 04:54:38;;;;;;;38.22;5.75;;;3.30;99.90;;;;;;5058372;28;20178;-79
2022/02/22 04:57:06;;;;;;;39.90;6.03;;;3.30;99.90;;;;;;5076950;28;20052;-79
2022/02/22 04:59:33;;;;;;;32.92;5.25;;;3.30;99.90;;;;;;5061665;28;20052;-79
2022/02/22 05:02:01;;;;;;;37.05;5.50;;;3.30;99.90;;;;;;5031228;28;20049;-79
2022/02/22 05:04:28;;;;;;;32.58;5.50;;;3.30;99.90;;;;;;5034091;28;20128;-79
2022/02/22 05:06:55;;;;;;;28.05;4.70;;;3.20;99.90;;;;;;5027146;28;20115;-79
2022/02/22 05:09:22;;;;;;;35.17;5.18;;;3.20;99.90;;;;;;5034285;28;20427;-78
2022/02/22 05:11:48;;;;;;;29.42;4.57;;;3.20;99.90;;;;;;5027018;28;20049;-79
2022/02/22 05:14:15;;;;;;;31.20;5.25;;;3.10;99.90;;;;;;5027460;28;20081;-79
2022/02/22 05:16:42;;;;;;;30.73;4.78;;;3.10;99.90;;;;;;5025625;28;20512;-79
2022/02/22 05:19:09;;;;;;;43.03;5.90;;;3.10;99.90;;;;;;5025654;28;20042;-79
2022/02/22 05:21:36;;;;;;;29.58;5.55;;;3.10;99.90;;;;;;5027383;28;20092;-79
2022/02/22 05:24:05;;;;;;;33.78;4.70;;;3.10;99.90;;;;;;5025133;28;20056;-79
2022/02/22 05:26:33;;;;;;;28.65;5.10;;;3.10;99.90;;;;;;5033703;28;20057;-79
2022/02/22 05:29:00;;;;;;;26.05;4.93;;;3.10;99.90;;;;;;5031014;28;20382;-79
2022/02/22 05:31:27;;;;;;;21.23;3.42;;;3.10;99.90;;;;;;5034409;28;20041;-79
2022/02/22 05:33:54;;;;;;;23.95;4.13;;;3.10;99.90;;;;;;5035257;28;20089;-78
2022/02/22 05:36:21;;;;;;;30.55;5.35;;;3.00;99.90;;;;;;5044430;28;20049;-78
2022/02/22 05:38:48;;;;;;;25.08;5.00;;;2.90;99.90;;;;;;5041955;28;20056;-79
2022/02/22 05:41:17;;;;;;;22.55;5.35;;;2.90;99.90;;;;;;5032765;28;20508;-79
2022/02/22 05:43:46;;;;;;;37.50;5.07;;;3.00;99.90;;;;;;5024154;28;20099;-79
2022/02/22 05:46:13;;;;;;;26.13;4.72;;;3.00;99.90;;;;;;5007694;28;20056;-78
2022/02/22 05:48:40;;;;;;;27.45;5.30;;;3.00;99.90;;;;;;5007752;28;20059;-79
2022/02/22 05:51:08;;;;;;;23.90;4.90;;;3.00;99.90;;;;;;5028827;28;20353;-79
2022/02/22 05:53:34;;;;;;;25.40;4.43;;;3.00;99.90;;;;;;5045166;28;20171;-79
2022/02/22 05:56:02;;;;;;;23.95;4.70;;;2.90;99.90;;;;;;5044003;28;20037;-79
2022/02/22 05:58:29;;;;;;;27.80;5.00;;;2.90;99.90;;;;;;5032741;28;20041;-79
2022/02/22 06:00:56;;;;;;;32.30;6.80;;;2.90;99.90;;;;;;5042320;28;20159;-79
2022/02/22 06:03:23;;;;;;;34.53;8.30;;;2.90;99.90;;;;;;5018748;28;20150;-79
2022/02/22 06:05:49;;;;;;;45.83;6.15;;;2.90;99.90;;;;;;5044259;28;20053;-79
2022/02/22 06:08:16;;;;;;;35.08;6.40;;;2.90;99.90;;;;;;5038958;28;20045;-79
2022/02/22 06:10:43;;;;;;;41.60;7.63;;;2.90;99.90;;;;;;5033548;28;20111;-78
2022/02/22 06:13:09;;;;;;;41.08;7.07;;;2.90;99.90;;;;;;5040348;28;20064;-79
2022/02/22 06:15:37;;;;;;;50.90;7.30;;;2.90;99.90;;;;;;5045945;28;20072;-78
2022/02/22 06:18:04;;;;;;;45.47;7.30;;;2.90;99.90;;;;;;5057104;28;20262;-78
2022/02/22 06:20:32;;;;;;;36.75;7.07;;;3.00;99.90;;;;;;5047303;28;20099;-79
2022/02/22 06:22:59;;;;;;;50.33;7.65;;;3.00;99.90;;;;;;5031181;28;20046;-78
2022/02/22 06:25:26;;;;;;;49.78;7.70;;;3.00;99.90;;;;;;5027044;28;20041;-79
2022/02/22 06:27:55;;;;;;;41.30;6.50;;;3.00;99.90;;;;;;5033649;28;20522;-77
2022/02/22 06:30:24;;;;;;;48.80;7.63;;;2.90;99.90;;;;;;5042811;28;20041;-78
2022/02/22 06:32:51;;;;;;;52.15;8.00;;;2.90;99.90;;;;;;5031202;28;20458;-79
2022/02/22 06:35:20;;;;;;;64.93;8.80;;;2.90;99.90;;;;;;5044751;28;20057;-78
2022/02/22 06:37:47;;;;;;;55.83;8.90;;;3.00;99.90;;;;;;5042318;28;20053;-79
2022/02/22 06:40:14;;;;;;;45.00;8.73;;;3.00;99.90;;;;;;5030014;28;20037;-78
2022/02/22 06:42:41;;;;;;;63.17;10.30;;;2.90;99.90;;;;;;5041560;28;20132;-78
2022/02/22 06:45:09;;;;;;;40.65;7.22;;;2.90;99.90;;;;;;5034322;28;20033;-78
2022/02/22 06:47:42;;;;;;;53.05;9.55;;;2.90;99.90;;;;;;5028993;28;20106;-78
2022/02/22 06:50:12;;;;;;;54.70;10.65;;;2.90;99.90;;;;;;5042869;28;20053;-78
2022/02/22 06:52:40;;;;;;;59.88;11.82;;;2.90;99.90;;;;;;5043012;28;20221;-79
2022/02/22 06:55:11;;;;;;;49.72;7.47;;;2.90;99.90;;;;;;5041658;28;20659;-78
2022/02/22 06:57:39;;;;;;;38.80;6.93;;;3.00;99.90;;;;;;5028449;28;20053;-79
2022/02/22 07:00:11;;;;;;;42.63;8.13;;;2.90;99.90;;;;;;5042839;28;20080;-79
2022/02/22 07:02:39;;;;;;;45.85;8.90;;;2.90;99.90;;;;;;5028916;28;20045;-79
2022/02/22 07:05:07;;;;;;;45.08;8.38;;;3.00;99.90;;;;;;5012436;28;20508;-78
2022/02/22 07:07:35;;;;;;;40.78;9.27;;;3.00;99.90;;;;;;5041944;28;20278;-77
2022/02/22 07:10:03;;;;;;;33.28;6.47;;;3.00;99.90;;;;;;5026811;28;20060;-77
2022/02/22 07:12:30;;;;;;;27.83;7.63;;;3.00;99.90;;;;;;5041794;28;20487;-78
2022/02/22 07:14:57;;;;;;;59.70;6.45;;;3.00;99.90;;;;;;5035842;28;20079;-78
2022/02/22 07:17:24;;;;;;;47.50;8.15;;;3.10;99.90;;;;;;5042739;28;20597;-78
2022/02/22 07:19:51;;;;;;;59.33;10.05;;;3.10;99.90;;;;;;5042166;28;20048;-78
2022/02/22 07:22:18;;;;;;;37.97;7.90;;;3.10;99.90;;;;;;5043690;28;20041;-79
2022/02/22 07:24:45;;;;;;;52.97;9.13;;;3.20;99.90;;;;;;5040936;28;20220;-79
2022/02/22 07:27:12;;;;;;;38.42;7.22;;;3.20;99.90;;;;;;5042070;28;20338;-78
2022/02/22 07:29:39;;;;;;;53.20;8.60;;;3.20;99.90;;;;;;5041101;28;20065;-78
2022/02/22 07:32:06;;;;;;;52.30;8.52;;;3.20;99.90;;;;;;5035280;28;20126;-78
2022/02/22 07:34:33;;;;;;;57.55;8.65;;;3.30;99.90;;;;;;5036978;28;20136;-78
2022/02/22 07:37:00;;;;;;;75.18;12.27;;;3.20;99.90;;;;;;5041135;28;20283;-78
2022/02/22 07:39:27;;;;;;;62.45;11.18;;;3.30;99.90;;;;;;5035929;28;20064;-78
2022/02/22 07:41:54;;;;;;;58.75;10.57;;;3.30;99.90;;;;;;5033806;28;20060;-78
2022/02/22 07:44:21;;;;;;;55.33;9.52;;;3.30;99.90;;;;;;5042756;28;20040;-78
2022/02/22 07:46:48;;;;;;;52.90;10.13;;;3.20;99.90;;;;;;5042835;28;20045;-78
2022/02/22 07:49:15;;;;;;;37.63;7.72;;;3.30;99.90;;;;;;5041381;28;20045;-79
2022/02/22 07:51:43;;;;;;;55.70;8.43;;;3.30;99.90;;;;;;5041830;28;20740;-79
2022/02/22 07:54:10;;;;;;;61.10;10.00;;;3.30;99.90;;;;;;5044126;28;20048;-78
2022/02/22 07:56:37;;;;;;;52.15;7.50;;;3.30;99.90;;;;;;5056389;28;20510;-77
2022/02/22 07:59:04;;;;;;;70.65;10.38;;;3.30;99.90;;;;;;5040038;28;20049;-81
2022/02/22 08:01:31;;;;;;;64.97;8.40;;;3.40;99.90;;;;;;5035958;28;20428;-79
2022/02/22 08:03:57;;;;;;;46.10;8.25;;;3.40;99.90;;;;;;5035079;28;20045;-78
2022/02/22 08:06:25;;;;;;;48.78;9.63;;;3.40;99.90;;;;;;5035186;28;20045;-79
2022/02/22 08:08:52;;;;;;;61.70;9.25;;;3.40;99.90;;;;;;5031610;28;20210;-79
2022/02/22 08:11:19;;;;;;;54.25;10.35;;;3.40;99.90;;;;;;5034521;28;20422;-79
2022/02/22 08:13:45;;;;;;;55.67;9.02;;;3.40;99.90;;;;;;5034142;28;20538;-80
2022/02/22 08:16:12;;;;;;;69.22;9.20;;;3.50;99.90;;;;;;5033693;28;20427;-81
2022/02/22 08:18:39;;;;;;;62.03;10.40;;;3.60;99.90;;;;;;5031723;28;20415;-79
2022/02/22 08:21:06;;;;;;;57.15;8.80;;;3.50;99.90;;;;;;5029139;28;20036;-79
2022/02/22 08:23:33;;;;;;;51.35;9.95;;;3.60;99.90;;;;;;5020862;28;20376;-79
2022/02/22 08:26:02;;;;;;;44.58;9.93;;;3.60;99.90;;;;;;5020327;28;20068;-80
2022/02/22 08:28:29;;;;;;;57.33;11.57;;;3.50;99.90;;;;;;5032923;28;20709;-80
2022/02/22 08:30:57;;;;;;;52.63;11.05;;;3.50;99.90;;;;;;5022435;28;20358;-77
2022/02/22 08:33:24;;;;;;;56.40;11.38;;;3.60;99.90;;;;;;5026338;28;20722;-77
2022/02/22 08:35:51;;;;;;;57.28;14.30;;;3.60;99.90;;;;;;5026180;28;20064;-77
2022/02/22 08:38:18;;;;;;;61.00;12.65;;;3.60;99.90;;;;;;5024726;28;20501;-77
2022/02/22 08:40:45;;;;;;;61.55;12.85;;;3.70;99.90;;;;;;5011310;28;20044;-77
2022/02/22 08:43:15;;;;;;;55.17;12.38;;;3.70;99.90;;;;;;5036962;28;20053;-77
2022/02/22 08:45:44;;;;;;;50.25;13.05;;;3.70;99.90;;;;;;5020901;28;20049;-75
2022/02/22 08:48:12;;;;;;;52.65;12.00;;;3.60;99.90;;;;;;5026827;28;20060;-75
2022/02/22 08:50:40;;;;;;;66.55;14.35;;;3.70;99.90;;;;;;5035516;28;20045;-76
2022/02/22 08:53:07;;;;;;;56.20;9.55;;;3.70;99.90;;;;;;5018501;28;20066;-76
2022/02/22 08:55:35;;;;;;;56.03;11.43;;;3.80;99.90;;;;;;5037653;28;20405;-76
2022/02/22 08:58:02;;;;;;;44.67;9.40;;;3.90;99.90;;;;;;5039555;28;20049;-75
2022/02/22 09:00:31;;;;;;;52.47;11.32;;;3.90;99.90;;;;;;5038036;28;20052;-75
2022/02/22 09:02:57;;;;;;;50.80;11.38;;;4.00;99.90;;;;;;5030364;28;20707;-75
2022/02/22 09:05:25;;;;;;;47.92;10.75;;;4.00;99.90;;;;;;5022650;28;20128;-75
2022/02/22 09:07:52;;;;;;;46.10;10.40;;;4.00;99.90;;;;;;5027446;28;20210;-76
2022/02/22 09:10:20;;;;;;;49.70;12.30;;;4.00;99.90;;;;;;5024823;28;20053;-76
2022/02/22 09:12:48;;;;;;;51.95;12.57;;;4.00;99.90;;;;;;5038053;28;20041;-75
2022/02/22 09:15:16;;;;;;;47.72;11.30;;;4.10;99.90;;;;;;5036221;28;20053;-75
2022/02/22 09:17:45;;;;;;;55.55;14.32;;;4.00;99.90;;;;;;5038517;28;20119;-75
2022/02/22 09:20:14;;;;;;;47.88;11.65;;;4.00;99.90;;;;;;5047759;23;20076;-70
2022/02/22 09:22:41;;;;;;;55.75;14.02;;;4.00;99.90;;;;;;5029850;28;20030;-70
2022/02/22 09:25:10;;;;;;;39.47;10.50;;;4.10;99.90;;;;;;5041682;28;20148;-70
2022/02/22 09:27:42;;;;;;;64.75;16.23;;;4.10;99.90;;;;;;5043491;28;20045;-70
2022/02/22 09:30:11;;;;;;;60.78;15.80;;;4.10;99.90;;;;;;5042662;28;20104;-70
2022/02/22 09:32:38;;;;;;;51.50;16.88;;;4.20;99.90;;;;;;5036246;28;20083;-71
2022/02/22 09:35:06;;;;;;;54.33;15.02;;;4.20;99.90;;;;;;5039217;28;20063;-70
2022/02/22 09:37:33;;;;;;;56.75;15.35;;;4.30;99.90;;;;;;5026391;28;20148;-71
2022/02/22 09:40:00;;;;;;;64.78;18.38;;;4.40;99.90;;;;;;5030061;28;20042;-70
2022/02/22 09:42:27;;;;;;;53.78;16.15;;;4.40;99.90;;;;;;5034373;28;20135;-70
2022/02/22 09:44:54;;;;;;;46.17;14.88;;;4.40;99.90;;;;;;5028369;28;20050;-70
2022/02/22 09:47:21;;;;;;;40.40;13.50;;;4.40;99.90;;;;;;5032032;28;20095;-70
2022/02/22 09:49:48;;;;;;;49.95;12.70;;;4.40;99.90;;;;;;5042166;28;20459;-71
2022/02/22 09:52:15;;;;;;;37.53;11.07;;;4.50;99.90;;;;;;5038698;28;20674;-71
2022/02/22 09:54:41;;;;;;;39.85;12.23;;;4.50;99.90;;;;;;5027626;28;20079;-71
2022/02/22 09:57:08;;;;;;;44.50;12.98;;;4.60;99.90;;;;;;5054020;28;20040;-72
2022/02/22 09:59:35;;;;;;;42.90;13.48;;;4.50;99.90;;;;;;5032019;28;20099;-71
2022/02/22 10:02:03;;;;;;;48.65;13.27;;;4.50;99.90;;;;;;5018095;28;20064;-72
2022/02/22 10:04:40;;;;;;;47.05;12.45;;;4.50;99.90;;;;;;5035474;28;20146;-71
2022/02/22 10:07:07;;;;;;;47.67;12.65;;;4.60;99.90;;;;;;5039298;28;20033;-71
2022/02/22 10:09:34;;;;;;;46.13;10.88;;;4.70;99.90;;;;;;5020712;28;20622;-71
2022/02/22 10:12:01;;;;;;;41.83;11.65;;;4.70;99.90;;;;;;5037200;28;20773;-71
2022/02/22 10:14:30;;;;;;;29.80;10.45;;;4.70;99.90;;;;;;5038357;28;20045;-71
2022/02/22 10:16:58;;;;;;;32.67;10.05;;;4.70;99.90;;;;;;5037317;28;20636;-71
2022/02/22 10:19:28;;;;;;;37.75;10.25;;;4.80;99.90;;;;;;5038720;28;20041;-71
2022/02/22 10:21:56;;;;;;;20.85;7.97;;;4.80;99.90;;;;;;5037954;28;20050;-71
2022/02/22 10:24:30;;;;;;;35.15;9.55;;;4.90;99.90;;;;;;5037078;28;20095;-71
2022/02/22 10:27:06;;;;;;;42.55;10.95;;;5.00;99.90;;;;;;5038802;28;20033;-71
2022/02/22 10:29:35;;;;;;;48.38;10.55;;;5.00;99.90;;;;;;5036622;28;20056;-72
2022/02/22 10:32:16;;;;;;;41.70;10.63;;;5.20;99.90;;;;;;5037942;28;20140;-71
2022/02/22 10:34:43;;;;;;;38.47;10.07;;;5.30;99.90;;;;;;5030024;28;20041;-71
2022/02/22 10:37:11;;;;;;;32.42;8.38;;;5.30;99.90;;;;;;5036500;28;20040;-71
2022/02/22 10:39:38;;;;;;;30.27;9.77;;;5.20;99.90;;;;;;5033575;28;20064;-72
2022/02/22 10:42:05;;;;;;;50.92;12.50;;;5.10;99.90;;;;;;5024961;28;20728;-71
2022/02/22 10:44:36;;;;;;;49.50;9.90;;;5.20;99.90;;;;;;5023598;28;20041;-72
2022/02/22 10:47:16;;;;;;;32.58;9.05;;;5.30;99.90;;;;;;5023780;28;20483;-72
2022/02/22 10:49:43;;;;;;;32.25;9.25;;;5.30;99.90;;;;;;5032658;28;20071;-72
2022/02/22 10:52:11;;;;;;;41.00;9.32;;;5.40;99.90;;;;;;5021696;28;20053;-72
2022/02/22 10:54:41;;;;;;;35.10;8.73;;;5.40;99.90;;;;;;5042514;28;20055;-72
2022/02/22 10:57:08;;;;;;;29.17;7.28;;;5.50;99.90;;;;;;5060849;28;20102;-71
2022/02/22 10:59:35;;;;;;;27.92;7.40;;;5.60;99.90;;;;;;5044642;28;20110;-72
2022/02/22 11:02:03;;;;;;;26.08;7.78;;;5.70;99.90;;;;;;5031758;28;20145;-72
2022/02/22 11:04:34;;;;;;;30.17;9.13;;;5.80;99.90;;;;;;5036727;28;20048;-72
2022/02/22 11:07:03;;;;;;;27.77;8.15;;;6.00;99.90;;;;;;5041532;28;20055;-72
2022/02/22 11:09:34;;;;;;;30.33;9.95;;;6.00;99.90;;;;;;5029702;28;20088;-71
2022/02/22 11:12:07;;;;;;;28.48;8.88;;;6.10;99.90;;;;;;5032600;28;20095;-71
2022/02/22 11:14:35;;;;;;;29.70;8.75;;;6.20;99.90;;;;;;5038082;28;20156;-72
2022/02/22 11:17:25;;;;;;;28.67;9.60;;;6.20;99.90;;;;;;5041471;28;20048;-70
2022/02/22 11:19:54;;;;;;;22.25;10.75;;;6.00;99.90;;;;;;5041300;28;20044;-72
2022/02/22 11:22:25;;;;;;;19.60;11.57;;;6.00;99.90;;;;;;5039369;28;20044;-71
2022/02/22 11:25:00;;;;;;;26.13;12.73;;;6.00;99.90;;;;;;5038290;28;20079;-72
2022/02/22 11:27:38;;;;;;;22.08;12.77;;;6.00;99.90;;;;;;5041997;28;20073;-72
2022/02/22 11:30:07;;;;;;;26.70;12.10;;;6.20;99.90;;;;;;5039466;28;20736;-72
2022/02/22 11:32:39;;;;;;;17.13;11.20;;;6.20;99.90;;;;;;5032736;28;20046;-71
2022/02/22 11:35:09;;;;;;;21.92;13.68;;;6.20;99.90;;;;;;5033576;28;20041;-71
2022/02/22 11:37:37;;;;;;;28.90;17.33;;;6.20;99.90;;;;;;5026869;28;20044;-71
2022/02/22 11:40:06;;;;;;;37.67;19.02;;;6.30;99.90;;;;;;5028310;28;20099;-72
2022/02/22 11:42:33;;;;;;;27.88;17.05;;;6.30;99.90;;;;;;5022954;28;20568;-71
2022/02/22 11:45:07;;;;;;;17.48;15.85;;;6.40;99.90;;;;;;5039922;28;20559;-72
2022/02/22 11:47:38;;;;;;;20.45;15.15;;;6.40;99.90;;;;;;5030378;28;20056;-71
2022/02/22 11:50:15;;;;;;;15.45;13.95;;;6.40;99.90;;;;;;5040885;28;20049;-72
2022/02/22 11:52:51;;;;;;;19.88;13.68;;;6.40;99.90;;;;;;5038022;28;20194;-72
2022/02/22 11:55:22;;;;;;;25.05;14.70;;;6.50;99.90;;;;;;5041248;28;20044;-71
2022/02/22 11:57:51;;;;;;;30.92;19.25;;;6.50;99.90;;;;;;5036004;28;20123;-72
2022/02/22 12:00:31;;;;;;;23.40;14.35;;;6.50;99.90;;;;;;5021120;28;20527;-71
2022/02/22 12:03:09;;;;;;;23.20;16.13;;;6.50;99.90;;;;;;5031494;28;20051;-72
2022/02/22 12:05:39;;;;;;;16.02;14.20;;;6.50;99.90;;;;;;5037584;28;20129;-72
2022/02/22 12:08:07;;;;;;;14.98;13.52;;;6.50;99.90;;;;;;5029434;28;20121;-71
2022/02/22 12:10:44;;;;;;;18.08;14.43;;;6.50;99.90;;;;;;5028028;28;20073;-71
2022/02/22 12:13:13;;;;;;;16.92;15.05;;;6.60;99.90;;;;;;5023189;28;20049;-72
2022/02/22 12:15:44;;;;;;;25.85;14.35;;;6.60;99.90;;;;;;5025652;28;20063;-72
2022/02/22 12:18:15;;;;;;;17.45;13.10;;;6.60;99.90;;;;;;5021578;28;20096;-72
2022/02/22 12:20:43;;;;;;;14.77;12.93;;;6.70;99.90;;;;;;5020762;28;20449;-72
2022/02/22 12:23:19;;;;;;;17.50;13.48;;;6.70;99.90;;;;;;5036617;28;20132;-71
2022/02/22 12:25:47;;;;;;;19.83;13.52;;;6.80;99.90;;;;;;5024599;28;20064;-70
2022/02/22 12:28:14;;;;;;;20.25;13.60;;;6.70;99.90;;;;;;5038737;28;20530;-72
2022/02/22 12:30:42;;;;;;;16.08;13.73;;;6.70;99.90;;;;;;5039505;28;20870;-72
2022/02/22 12:33:09;;;;;;;16.58;11.45;;;6.80;99.90;;;;;;5030255;28;20060;-71
2022/02/22 12:35:38;;;;;;;18.00;12.05;;;6.80;99.90;;;;;;5036343;28;20053;-72
2022/02/22 12:38:23;;;;;;;20.65;12.25;;;6.80;99.90;;;;;;5033291;28;20572;-72
2022/02/22 12:40:51;;;;;;;18.92;12.05;;;6.90;99.90;;;;;;5031906;28;21235;-71
2022/02/22 12:43:44;;;;;;;24.48;12.93;;;6.80;99.90;;;;;;5039887;28;20053;-71
2022/02/22 12:46:11;;;;;;;20.10;10.60;;;6.90;99.90;;;;;;5027375;28;20049;-72
2022/02/22 12:48:43;;;;;;;19.17;11.55;;;6.80;99.90;;;;;;5033754;28;20148;-72